<?xml version="1.0" encoding="UTF-8" standalone="no" ?>
<gpx xmlns="http://www.topografix.com/GPX/1/1" xmlns:xsi="http://www.w3.org/2001/XMLSchema-instance" xsi:schemaLocation="http://www.topografix.com/GPX/1/1 http://www.topografix.com/GPX/1/1/gpx.xsd" version="1.1" creator="VisuGPX - https://www.visugpx.com">
  <metadata>
    <name>Etang des Noues-Cholet</name>
    <desc><![CDATA[Agréable,en sous bois a faire. Terrain praticable]]></desc>
  </metadata>
  <trk>
    <name><![CDATA[Etang des Noues-Cholet_1]]></name>
    <trkseg>
      <trkpt lat="47.06684" lon="-0.81331">
        <ele>131.4</ele>
        <time>2018-01-15T09:13:19Z</time>
      </trkpt>
      <trkpt lat="47.06684" lon="-0.81331">
        <ele>183</ele>
        <time>2018-01-15T09:13:20Z</time>
      </trkpt>
      <trkpt lat="47.06696" lon="-0.81297">
        <ele>182</ele>
        <time>2018-01-15T09:13:46Z</time>
      </trkpt>
      <trkpt lat="47.06704" lon="-0.8128">
        <ele>181</ele>
        <time>2018-01-15T09:14:01Z</time>
      </trkpt>
      <trkpt lat="47.06721" lon="-0.81276">
        <ele>178</ele>
        <time>2018-01-15T09:14:20Z</time>
      </trkpt>
      <trkpt lat="47.06729" lon="-0.81258">
        <ele>177</ele>
        <time>2018-01-15T09:14:31Z</time>
      </trkpt>
      <trkpt lat="47.06742" lon="-0.81234">
        <ele>177</ele>
        <time>2018-01-15T09:14:48Z</time>
      </trkpt>
      <trkpt lat="47.06749" lon="-0.81213">
        <ele>175</ele>
        <time>2018-01-15T09:14:59Z</time>
      </trkpt>
      <trkpt lat="47.0676" lon="-0.81183">
        <ele>179</ele>
        <time>2018-01-15T09:15:16Z</time>
      </trkpt>
      <trkpt lat="47.0677" lon="-0.81158">
        <ele>181</ele>
        <time>2018-01-15T09:15:29Z</time>
      </trkpt>
      <trkpt lat="47.06778" lon="-0.81133">
        <ele>179</ele>
        <time>2018-01-15T09:15:42Z</time>
      </trkpt>
      <trkpt lat="47.06788" lon="-0.81109">
        <ele>182</ele>
        <time>2018-01-15T09:15:56Z</time>
      </trkpt>
      <trkpt lat="47.06802" lon="-0.8108">
        <ele>179</ele>
        <time>2018-01-15T09:16:12Z</time>
      </trkpt>
      <trkpt lat="47.06818" lon="-0.8105">
        <ele>182</ele>
        <time>2018-01-15T09:16:27Z</time>
      </trkpt>
      <trkpt lat="47.06829" lon="-0.81029">
        <ele>181</ele>
        <time>2018-01-15T09:16:38Z</time>
      </trkpt>
      <trkpt lat="47.0684" lon="-0.81006">
        <ele>181</ele>
        <time>2018-01-15T09:16:50Z</time>
      </trkpt>
      <trkpt lat="47.06846" lon="-0.80991">
        <ele>179</ele>
        <time>2018-01-15T09:17:00Z</time>
      </trkpt>
      <trkpt lat="47.06859" lon="-0.80974">
        <ele>180</ele>
        <time>2018-01-15T09:17:11Z</time>
      </trkpt>
      <trkpt lat="47.06861" lon="-0.80964">
        <ele>177</ele>
        <time>2018-01-15T09:17:18Z</time>
      </trkpt>
      <trkpt lat="47.06879" lon="-0.80933">
        <ele>177</ele>
        <time>2018-01-15T09:17:35Z</time>
      </trkpt>
      <trkpt lat="47.06887" lon="-0.80917">
        <ele>176</ele>
        <time>2018-01-15T09:17:44Z</time>
      </trkpt>
      <trkpt lat="47.06896" lon="-0.80897">
        <ele>179</ele>
        <time>2018-01-15T09:17:56Z</time>
      </trkpt>
      <trkpt lat="47.0691" lon="-0.80874">
        <ele>181</ele>
        <time>2018-01-15T09:18:12Z</time>
      </trkpt>
      <trkpt lat="47.06923" lon="-0.80843">
        <ele>180</ele>
        <time>2018-01-15T09:18:29Z</time>
      </trkpt>
      <trkpt lat="47.06935" lon="-0.80825">
        <ele>177</ele>
        <time>2018-01-15T09:18:40Z</time>
      </trkpt>
      <trkpt lat="47.06942" lon="-0.80807">
        <ele>182</ele>
        <time>2018-01-15T09:18:50Z</time>
      </trkpt>
      <trkpt lat="47.06953" lon="-0.80788">
        <ele>181</ele>
        <time>2018-01-15T09:19:02Z</time>
      </trkpt>
      <trkpt lat="47.06973" lon="-0.80763">
        <ele>177</ele>
        <time>2018-01-15T09:19:20Z</time>
      </trkpt>
      <trkpt lat="47.06989" lon="-0.8075">
        <ele>176</ele>
        <time>2018-01-15T09:19:32Z</time>
      </trkpt>
      <trkpt lat="47.07002" lon="-0.80735">
        <ele>175</ele>
        <time>2018-01-15T09:19:45Z</time>
      </trkpt>
      <trkpt lat="47.07013" lon="-0.80722">
        <ele>176</ele>
        <time>2018-01-15T09:19:55Z</time>
      </trkpt>
      <trkpt lat="47.07024" lon="-0.80712">
        <ele>176</ele>
        <time>2018-01-15T09:20:04Z</time>
      </trkpt>
      <trkpt lat="47.0704" lon="-0.80701">
        <ele>178</ele>
        <time>2018-01-15T09:20:15Z</time>
      </trkpt>
      <trkpt lat="47.07045" lon="-0.80697">
        <ele>176</ele>
        <time>2018-01-15T09:20:20Z</time>
      </trkpt>
      <trkpt lat="47.07045" lon="-0.80697">
        <ele>131.9</ele>
        <time>2018-01-15T09:20:26Z</time>
      </trkpt>
      <trkpt lat="47.07045" lon="-0.80697">
        <ele>131.9</ele>
        <time>2018-01-15T09:20:34Z</time>
      </trkpt>
      <trkpt lat="47.07076" lon="-0.80662">
        <ele>178</ele>
        <time>2018-01-15T09:20:48Z</time>
      </trkpt>
      <trkpt lat="47.07089" lon="-0.80646">
        <ele>180</ele>
        <time>2018-01-15T09:20:58Z</time>
      </trkpt>
      <trkpt lat="47.07099" lon="-0.80632">
        <ele>177</ele>
        <time>2018-01-15T09:21:09Z</time>
      </trkpt>
      <trkpt lat="47.07117" lon="-0.80607">
        <ele>179</ele>
        <time>2018-01-15T09:21:26Z</time>
      </trkpt>
      <trkpt lat="47.07134" lon="-0.80587">
        <ele>178</ele>
        <time>2018-01-15T09:21:41Z</time>
      </trkpt>
      <trkpt lat="47.07147" lon="-0.80569">
        <ele>174</ele>
        <time>2018-01-15T09:21:53Z</time>
      </trkpt>
      <trkpt lat="47.07159" lon="-0.8055">
        <ele>174</ele>
        <time>2018-01-15T09:22:04Z</time>
      </trkpt>
      <trkpt lat="47.07167" lon="-0.80535">
        <ele>177</ele>
        <time>2018-01-15T09:22:16Z</time>
      </trkpt>
      <trkpt lat="47.07179" lon="-0.80519">
        <ele>175</ele>
        <time>2018-01-15T09:22:27Z</time>
      </trkpt>
      <trkpt lat="47.07189" lon="-0.80495">
        <ele>175</ele>
        <time>2018-01-15T09:22:40Z</time>
      </trkpt>
      <trkpt lat="47.07189" lon="-0.80464">
        <ele>175</ele>
        <time>2018-01-15T09:22:55Z</time>
      </trkpt>
      <trkpt lat="47.07193" lon="-0.80435">
        <ele>175</ele>
        <time>2018-01-15T09:23:08Z</time>
      </trkpt>
      <trkpt lat="47.07193" lon="-0.80418">
        <ele>176</ele>
        <time>2018-01-15T09:23:17Z</time>
      </trkpt>
      <trkpt lat="47.07198" lon="-0.80392">
        <ele>173</ele>
        <time>2018-01-15T09:23:31Z</time>
      </trkpt>
      <trkpt lat="47.07202" lon="-0.80358">
        <ele>174</ele>
        <time>2018-01-15T09:23:47Z</time>
      </trkpt>
      <trkpt lat="47.072" lon="-0.80339">
        <ele>175</ele>
        <time>2018-01-15T09:23:57Z</time>
      </trkpt>
      <trkpt lat="47.07204" lon="-0.80318">
        <ele>171</ele>
        <time>2018-01-15T09:24:08Z</time>
      </trkpt>
      <trkpt lat="47.07207" lon="-0.80298">
        <ele>168</ele>
        <time>2018-01-15T09:24:20Z</time>
      </trkpt>
      <trkpt lat="47.07207" lon="-0.80264">
        <ele>172</ele>
        <time>2018-01-15T09:24:36Z</time>
      </trkpt>
      <trkpt lat="47.07208" lon="-0.80242">
        <ele>172</ele>
        <time>2018-01-15T09:24:47Z</time>
      </trkpt>
      <trkpt lat="47.0721" lon="-0.80213">
        <ele>171</ele>
        <time>2018-01-15T09:25:02Z</time>
      </trkpt>
      <trkpt lat="47.07212" lon="-0.80177">
        <ele>173</ele>
        <time>2018-01-15T09:25:17Z</time>
      </trkpt>
      <trkpt lat="47.07209" lon="-0.80152">
        <ele>179</ele>
        <time>2018-01-15T09:25:28Z</time>
      </trkpt>
      <trkpt lat="47.07209" lon="-0.80127">
        <ele>181</ele>
        <time>2018-01-15T09:25:38Z</time>
      </trkpt>
      <trkpt lat="47.0721" lon="-0.80109">
        <ele>177</ele>
        <time>2018-01-15T09:25:47Z</time>
      </trkpt>
      <trkpt lat="47.07213" lon="-0.80085">
        <ele>175</ele>
        <time>2018-01-15T09:25:59Z</time>
      </trkpt>
      <trkpt lat="47.07217" lon="-0.80057">
        <ele>173</ele>
        <time>2018-01-15T09:26:13Z</time>
      </trkpt>
      <trkpt lat="47.07217" lon="-0.80029">
        <ele>176</ele>
        <time>2018-01-15T09:26:27Z</time>
      </trkpt>
      <trkpt lat="47.07217" lon="-0.80014">
        <ele>183</ele>
        <time>2018-01-15T09:26:33Z</time>
      </trkpt>
      <trkpt lat="47.07216" lon="-0.79985">
        <ele>188</ele>
        <time>2018-01-15T09:26:48Z</time>
      </trkpt>
      <trkpt lat="47.07217" lon="-0.79955">
        <ele>180</ele>
        <time>2018-01-15T09:27:06Z</time>
      </trkpt>
      <trkpt lat="47.07221" lon="-0.79914">
        <ele>189</ele>
        <time>2018-01-15T09:27:23Z</time>
      </trkpt>
      <trkpt lat="47.07222" lon="-0.79893">
        <ele>189</ele>
        <time>2018-01-15T09:27:32Z</time>
      </trkpt>
      <trkpt lat="47.07224" lon="-0.79876">
        <ele>190</ele>
        <time>2018-01-15T09:27:40Z</time>
      </trkpt>
      <trkpt lat="47.07226" lon="-0.79849">
        <ele>188</ele>
        <time>2018-01-15T09:27:54Z</time>
      </trkpt>
      <trkpt lat="47.07233" lon="-0.79819">
        <ele>189</ele>
        <time>2018-01-15T09:28:09Z</time>
      </trkpt>
      <trkpt lat="47.0723" lon="-0.79795">
        <ele>190</ele>
        <time>2018-01-15T09:28:20Z</time>
      </trkpt>
      <trkpt lat="47.0723" lon="-0.79774">
        <ele>191</ele>
        <time>2018-01-15T09:28:31Z</time>
      </trkpt>
      <trkpt lat="47.07229" lon="-0.79758">
        <ele>189</ele>
        <time>2018-01-15T09:28:39Z</time>
      </trkpt>
      <trkpt lat="47.0723" lon="-0.79729">
        <ele>189</ele>
        <time>2018-01-15T09:28:52Z</time>
      </trkpt>
      <trkpt lat="47.07234" lon="-0.79714">
        <ele>186</ele>
        <time>2018-01-15T09:29:00Z</time>
      </trkpt>
      <trkpt lat="47.07238" lon="-0.79684">
        <ele>191</ele>
        <time>2018-01-15T09:29:13Z</time>
      </trkpt>
      <trkpt lat="47.07241" lon="-0.79667">
        <ele>194</ele>
        <time>2018-01-15T09:29:22Z</time>
      </trkpt>
      <trkpt lat="47.07253" lon="-0.79646">
        <ele>194</ele>
        <time>2018-01-15T09:29:35Z</time>
      </trkpt>
      <trkpt lat="47.07265" lon="-0.79625">
        <ele>191</ele>
        <time>2018-01-15T09:29:49Z</time>
      </trkpt>
      <trkpt lat="47.07278" lon="-0.79616">
        <ele>187</ele>
        <time>2018-01-15T09:30:02Z</time>
      </trkpt>
      <trkpt lat="47.07284" lon="-0.79596">
        <ele>191</ele>
        <time>2018-01-15T09:30:16Z</time>
      </trkpt>
      <trkpt lat="47.07295" lon="-0.7957">
        <ele>193</ele>
        <time>2018-01-15T09:30:30Z</time>
      </trkpt>
      <trkpt lat="47.07306" lon="-0.7955">
        <ele>196</ele>
        <time>2018-01-15T09:30:38Z</time>
      </trkpt>
      <trkpt lat="47.0732" lon="-0.79533">
        <ele>197</ele>
        <time>2018-01-15T09:30:46Z</time>
      </trkpt>
      <trkpt lat="47.07333" lon="-0.79511">
        <ele>200</ele>
        <time>2018-01-15T09:30:56Z</time>
      </trkpt>
      <trkpt lat="47.07345" lon="-0.79494">
        <ele>193</ele>
        <time>2018-01-15T09:31:07Z</time>
      </trkpt>
      <trkpt lat="47.07354" lon="-0.79471">
        <ele>198</ele>
        <time>2018-01-15T09:31:21Z</time>
      </trkpt>
      <trkpt lat="47.07361" lon="-0.79451">
        <ele>202</ele>
        <time>2018-01-15T09:31:29Z</time>
      </trkpt>
      <trkpt lat="47.07368" lon="-0.79436">
        <ele>201</ele>
        <time>2018-01-15T09:31:36Z</time>
      </trkpt>
      <trkpt lat="47.07382" lon="-0.79413">
        <ele>200</ele>
        <time>2018-01-15T09:31:49Z</time>
      </trkpt>
      <trkpt lat="47.07393" lon="-0.79394">
        <ele>200</ele>
        <time>2018-01-15T09:31:58Z</time>
      </trkpt>
      <trkpt lat="47.07403" lon="-0.79376">
        <ele>203</ele>
        <time>2018-01-15T09:32:07Z</time>
      </trkpt>
      <trkpt lat="47.07414" lon="-0.79351">
        <ele>204</ele>
        <time>2018-01-15T09:32:20Z</time>
      </trkpt>
      <trkpt lat="47.07422" lon="-0.79337">
        <ele>203</ele>
        <time>2018-01-15T09:32:32Z</time>
      </trkpt>
      <trkpt lat="47.0743" lon="-0.79318">
        <ele>205</ele>
        <time>2018-01-15T09:32:41Z</time>
      </trkpt>
      <trkpt lat="47.07442" lon="-0.79304">
        <ele>202</ele>
        <time>2018-01-15T09:32:49Z</time>
      </trkpt>
      <trkpt lat="47.0745" lon="-0.79283">
        <ele>198</ele>
        <time>2018-01-15T09:33:03Z</time>
      </trkpt>
      <trkpt lat="47.07467" lon="-0.79256">
        <ele>204</ele>
        <time>2018-01-15T09:33:18Z</time>
      </trkpt>
      <trkpt lat="47.07485" lon="-0.79233">
        <ele>197</ele>
        <time>2018-01-15T09:33:31Z</time>
      </trkpt>
      <trkpt lat="47.07493" lon="-0.79212">
        <ele>204</ele>
        <time>2018-01-15T09:33:43Z</time>
      </trkpt>
      <trkpt lat="47.07506" lon="-0.79192">
        <ele>203</ele>
        <time>2018-01-15T09:33:54Z</time>
      </trkpt>
      <trkpt lat="47.07517" lon="-0.79179">
        <ele>204</ele>
        <time>2018-01-15T09:34:04Z</time>
      </trkpt>
      <trkpt lat="47.0753" lon="-0.79152">
        <ele>208</ele>
        <time>2018-01-15T09:34:18Z</time>
      </trkpt>
      <trkpt lat="47.0754" lon="-0.79134">
        <ele>207</ele>
        <time>2018-01-15T09:34:29Z</time>
      </trkpt>
      <trkpt lat="47.07556" lon="-0.79101">
        <ele>208</ele>
        <time>2018-01-15T09:34:47Z</time>
      </trkpt>
      <trkpt lat="47.07572" lon="-0.79072">
        <ele>206</ele>
        <time>2018-01-15T09:35:01Z</time>
      </trkpt>
      <trkpt lat="47.07584" lon="-0.79054">
        <ele>209</ele>
        <time>2018-01-15T09:35:12Z</time>
      </trkpt>
      <trkpt lat="47.07593" lon="-0.79035">
        <ele>206</ele>
        <time>2018-01-15T09:35:23Z</time>
      </trkpt>
      <trkpt lat="47.07608" lon="-0.79008">
        <ele>204</ele>
        <time>2018-01-15T09:35:39Z</time>
      </trkpt>
      <trkpt lat="47.07619" lon="-0.7899">
        <ele>207</ele>
        <time>2018-01-15T09:35:48Z</time>
      </trkpt>
      <trkpt lat="47.07628" lon="-0.78976">
        <ele>208</ele>
        <time>2018-01-15T09:35:58Z</time>
      </trkpt>
      <trkpt lat="47.07643" lon="-0.78949">
        <ele>204</ele>
        <time>2018-01-15T09:36:13Z</time>
      </trkpt>
      <trkpt lat="47.07656" lon="-0.78924">
        <ele>203</ele>
        <time>2018-01-15T09:36:28Z</time>
      </trkpt>
      <trkpt lat="47.07673" lon="-0.78899">
        <ele>201</ele>
        <time>2018-01-15T09:36:43Z</time>
      </trkpt>
      <trkpt lat="47.07685" lon="-0.78872">
        <ele>204</ele>
        <time>2018-01-15T09:36:57Z</time>
      </trkpt>
      <trkpt lat="47.07692" lon="-0.78854">
        <ele>208</ele>
        <time>2018-01-15T09:37:07Z</time>
      </trkpt>
      <trkpt lat="47.07705" lon="-0.78834">
        <ele>209</ele>
        <time>2018-01-15T09:37:20Z</time>
      </trkpt>
      <trkpt lat="47.07724" lon="-0.78805">
        <ele>213</ele>
        <time>2018-01-15T09:37:35Z</time>
      </trkpt>
      <trkpt lat="47.07732" lon="-0.78791">
        <ele>213</ele>
        <time>2018-01-15T09:37:44Z</time>
      </trkpt>
      <trkpt lat="47.07741" lon="-0.78768">
        <ele>209</ele>
        <time>2018-01-15T09:37:56Z</time>
      </trkpt>
      <trkpt lat="47.07753" lon="-0.78749">
        <ele>207</ele>
        <time>2018-01-15T09:38:06Z</time>
      </trkpt>
      <trkpt lat="47.07763" lon="-0.78738">
        <ele>206</ele>
        <time>2018-01-15T09:38:14Z</time>
      </trkpt>
      <trkpt lat="47.07771" lon="-0.78722">
        <ele>206</ele>
        <time>2018-01-15T09:38:23Z</time>
      </trkpt>
      <trkpt lat="47.07785" lon="-0.78694">
        <ele>206</ele>
        <time>2018-01-15T09:38:37Z</time>
      </trkpt>
      <trkpt lat="47.07793" lon="-0.78681">
        <ele>205</ele>
        <time>2018-01-15T09:38:46Z</time>
      </trkpt>
      <trkpt lat="47.07806" lon="-0.78662">
        <ele>207</ele>
        <time>2018-01-15T09:38:57Z</time>
      </trkpt>
      <trkpt lat="47.07813" lon="-0.78646">
        <ele>207</ele>
        <time>2018-01-15T09:39:06Z</time>
      </trkpt>
      <trkpt lat="47.07825" lon="-0.78623">
        <ele>207</ele>
        <time>2018-01-15T09:39:20Z</time>
      </trkpt>
      <trkpt lat="47.07835" lon="-0.78604">
        <ele>204</ele>
        <time>2018-01-15T09:39:32Z</time>
      </trkpt>
      <trkpt lat="47.0785" lon="-0.78579">
        <ele>203</ele>
        <time>2018-01-15T09:39:46Z</time>
      </trkpt>
      <trkpt lat="47.07859" lon="-0.78556">
        <ele>208</ele>
        <time>2018-01-15T09:39:58Z</time>
      </trkpt>
      <trkpt lat="47.0787" lon="-0.7854">
        <ele>208</ele>
        <time>2018-01-15T09:40:07Z</time>
      </trkpt>
      <trkpt lat="47.0788" lon="-0.78522">
        <ele>206</ele>
        <time>2018-01-15T09:40:19Z</time>
      </trkpt>
      <trkpt lat="47.07895" lon="-0.78499">
        <ele>205</ele>
        <time>2018-01-15T09:40:31Z</time>
      </trkpt>
      <trkpt lat="47.0791" lon="-0.7848">
        <ele>207</ele>
        <time>2018-01-15T09:40:44Z</time>
      </trkpt>
      <trkpt lat="47.07921" lon="-0.78457">
        <ele>207</ele>
        <time>2018-01-15T09:40:55Z</time>
      </trkpt>
      <trkpt lat="47.07932" lon="-0.78446">
        <ele>203</ele>
        <time>2018-01-15T09:41:04Z</time>
      </trkpt>
      <trkpt lat="47.07947" lon="-0.78457">
        <ele>196</ele>
        <time>2018-01-15T09:41:17Z</time>
      </trkpt>
      <trkpt lat="47.07972" lon="-0.78476">
        <ele>199</ele>
        <time>2018-01-15T09:41:35Z</time>
      </trkpt>
      <trkpt lat="47.07989" lon="-0.78498">
        <ele>196</ele>
        <time>2018-01-15T09:41:51Z</time>
      </trkpt>
      <trkpt lat="47.08003" lon="-0.7851">
        <ele>202</ele>
        <time>2018-01-15T09:42:03Z</time>
      </trkpt>
      <trkpt lat="47.08027" lon="-0.78531">
        <ele>206</ele>
        <time>2018-01-15T09:42:20Z</time>
      </trkpt>
      <trkpt lat="47.08038" lon="-0.78538">
        <ele>203</ele>
        <time>2018-01-15T09:42:30Z</time>
      </trkpt>
      <trkpt lat="47.08053" lon="-0.78549">
        <ele>199</ele>
        <time>2018-01-15T09:42:41Z</time>
      </trkpt>
      <trkpt lat="47.08058" lon="-0.78553">
        <ele>197</ele>
        <time>2018-01-15T09:42:48Z</time>
      </trkpt>
      <trkpt lat="47.08076" lon="-0.78576">
        <ele>193</ele>
        <time>2018-01-15T09:43:04Z</time>
      </trkpt>
      <trkpt lat="47.08096" lon="-0.78596">
        <ele>194</ele>
        <time>2018-01-15T09:43:17Z</time>
      </trkpt>
      <trkpt lat="47.08106" lon="-0.78605">
        <ele>192</ele>
        <time>2018-01-15T09:43:25Z</time>
      </trkpt>
      <trkpt lat="47.08129" lon="-0.78627">
        <ele>191</ele>
        <time>2018-01-15T09:43:41Z</time>
      </trkpt>
      <trkpt lat="47.08128" lon="-0.78642">
        <ele>195</ele>
        <time>2018-01-15T09:43:49Z</time>
      </trkpt>
      <trkpt lat="47.08135" lon="-0.78667">
        <ele>197</ele>
        <time>2018-01-15T09:44:04Z</time>
      </trkpt>
      <trkpt lat="47.08148" lon="-0.78685">
        <ele>195</ele>
        <time>2018-01-15T09:44:16Z</time>
      </trkpt>
      <trkpt lat="47.08161" lon="-0.78698">
        <ele>195</ele>
        <time>2018-01-15T09:44:27Z</time>
      </trkpt>
      <trkpt lat="47.08171" lon="-0.7871">
        <ele>194</ele>
        <time>2018-01-15T09:44:38Z</time>
      </trkpt>
      <trkpt lat="47.08189" lon="-0.78737">
        <ele>195</ele>
        <time>2018-01-15T09:44:54Z</time>
      </trkpt>
      <trkpt lat="47.08201" lon="-0.78746">
        <ele>200</ele>
        <time>2018-01-15T09:45:03Z</time>
      </trkpt>
      <trkpt lat="47.08212" lon="-0.78755">
        <ele>196</ele>
        <time>2018-01-15T09:45:13Z</time>
      </trkpt>
      <trkpt lat="47.08229" lon="-0.78771">
        <ele>195</ele>
        <time>2018-01-15T09:45:24Z</time>
      </trkpt>
      <trkpt lat="47.08238" lon="-0.78782">
        <ele>190</ele>
        <time>2018-01-15T09:45:33Z</time>
      </trkpt>
      <trkpt lat="47.08254" lon="-0.78795">
        <ele>189</ele>
        <time>2018-01-15T09:45:45Z</time>
      </trkpt>
      <trkpt lat="47.08269" lon="-0.78815">
        <ele>192</ele>
        <time>2018-01-15T09:45:58Z</time>
      </trkpt>
      <trkpt lat="47.0828" lon="-0.78878">
        <ele>227</ele>
        <time>2018-01-15T09:46:39Z</time>
      </trkpt>
      <trkpt lat="47.0828" lon="-0.78878">
        <ele>227</ele>
        <time>2018-01-15T09:46:47Z</time>
      </trkpt>
      <trkpt lat="47.0828" lon="-0.78878">
        <ele>144.4</ele>
        <time>2018-01-15T09:46:47Z</time>
      </trkpt>
      <trkpt lat="47.0828" lon="-0.78878">
        <ele>144.4</ele>
        <time>2018-01-15T09:47:07Z</time>
      </trkpt>
      <trkpt lat="47.08255" lon="-0.78927">
        <ele>192</ele>
        <time>2018-01-15T09:47:20Z</time>
      </trkpt>
      <trkpt lat="47.08241" lon="-0.78961">
        <ele>188</ele>
        <time>2018-01-15T09:47:35Z</time>
      </trkpt>
      <trkpt lat="47.08228" lon="-0.78985">
        <ele>193</ele>
        <time>2018-01-15T09:47:45Z</time>
      </trkpt>
      <trkpt lat="47.08217" lon="-0.79005">
        <ele>196</ele>
        <time>2018-01-15T09:47:55Z</time>
      </trkpt>
      <trkpt lat="47.08206" lon="-0.79029">
        <ele>197</ele>
        <time>2018-01-15T09:48:06Z</time>
      </trkpt>
      <trkpt lat="47.08195" lon="-0.79048">
        <ele>200</ele>
        <time>2018-01-15T09:48:15Z</time>
      </trkpt>
      <trkpt lat="47.08184" lon="-0.79069">
        <ele>195</ele>
        <time>2018-01-15T09:48:25Z</time>
      </trkpt>
      <trkpt lat="47.08171" lon="-0.79103">
        <ele>196</ele>
        <time>2018-01-15T09:48:41Z</time>
      </trkpt>
      <trkpt lat="47.08158" lon="-0.79131">
        <ele>193</ele>
        <time>2018-01-15T09:48:52Z</time>
      </trkpt>
      <trkpt lat="47.08148" lon="-0.79147">
        <ele>196</ele>
        <time>2018-01-15T09:48:59Z</time>
      </trkpt>
      <trkpt lat="47.08137" lon="-0.79174">
        <ele>193</ele>
        <time>2018-01-15T09:49:11Z</time>
      </trkpt>
      <trkpt lat="47.08125" lon="-0.79203">
        <ele>194</ele>
        <time>2018-01-15T09:49:25Z</time>
      </trkpt>
      <trkpt lat="47.08119" lon="-0.7922">
        <ele>194</ele>
        <time>2018-01-15T09:49:36Z</time>
      </trkpt>
      <trkpt lat="47.08108" lon="-0.79253">
        <ele>200</ele>
        <time>2018-01-15T09:49:48Z</time>
      </trkpt>
      <trkpt lat="47.08094" lon="-0.79279">
        <ele>201</ele>
        <time>2018-01-15T09:49:58Z</time>
      </trkpt>
      <trkpt lat="47.08084" lon="-0.79305">
        <ele>200</ele>
        <time>2018-01-15T09:50:11Z</time>
      </trkpt>
      <trkpt lat="47.08074" lon="-0.79326">
        <ele>199</ele>
        <time>2018-01-15T09:50:21Z</time>
      </trkpt>
      <trkpt lat="47.08067" lon="-0.79343">
        <ele>203</ele>
        <time>2018-01-15T09:50:30Z</time>
      </trkpt>
      <trkpt lat="47.08053" lon="-0.79372">
        <ele>199</ele>
        <time>2018-01-15T09:50:42Z</time>
      </trkpt>
      <trkpt lat="47.08042" lon="-0.79393">
        <ele>199</ele>
        <time>2018-01-15T09:50:52Z</time>
      </trkpt>
      <trkpt lat="47.08023" lon="-0.79431">
        <ele>200</ele>
        <time>2018-01-15T09:51:11Z</time>
      </trkpt>
      <trkpt lat="47.08008" lon="-0.79467">
        <ele>200</ele>
        <time>2018-01-15T09:51:25Z</time>
      </trkpt>
      <trkpt lat="47.07996" lon="-0.79488">
        <ele>203</ele>
        <time>2018-01-15T09:51:35Z</time>
      </trkpt>
      <trkpt lat="47.07982" lon="-0.79513">
        <ele>205</ele>
        <time>2018-01-15T09:51:48Z</time>
      </trkpt>
      <trkpt lat="47.07971" lon="-0.79537">
        <ele>201</ele>
        <time>2018-01-15T09:52:00Z</time>
      </trkpt>
      <trkpt lat="47.07963" lon="-0.79559">
        <ele>197</ele>
        <time>2018-01-15T09:52:12Z</time>
      </trkpt>
      <trkpt lat="47.07947" lon="-0.79598">
        <ele>195</ele>
        <time>2018-01-15T09:52:29Z</time>
      </trkpt>
      <trkpt lat="47.07935" lon="-0.79627">
        <ele>188</ele>
        <time>2018-01-15T09:52:42Z</time>
      </trkpt>
      <trkpt lat="47.07919" lon="-0.79658">
        <ele>189</ele>
        <time>2018-01-15T09:52:53Z</time>
      </trkpt>
      <trkpt lat="47.07913" lon="-0.79672">
        <ele>189</ele>
        <time>2018-01-15T09:52:58Z</time>
      </trkpt>
      <trkpt lat="47.07912" lon="-0.79676">
        <ele>190</ele>
        <time>2018-01-15T09:52:59Z</time>
      </trkpt>
      <trkpt lat="47.07912" lon="-0.79676">
        <ele>144.2</ele>
        <time>2018-01-15T09:53:05Z</time>
      </trkpt>
      <trkpt lat="47.07912" lon="-0.79676">
        <ele>144.2</ele>
        <time>2018-01-15T09:53:10Z</time>
      </trkpt>
      <trkpt lat="47.07906" lon="-0.7969">
        <ele>187</ele>
        <time>2018-01-15T09:53:10Z</time>
      </trkpt>
      <trkpt lat="47.07889" lon="-0.79719">
        <ele>185</ele>
        <time>2018-01-15T09:53:23Z</time>
      </trkpt>
      <trkpt lat="47.07879" lon="-0.7974">
        <ele>189</ele>
        <time>2018-01-15T09:53:34Z</time>
      </trkpt>
      <trkpt lat="47.07864" lon="-0.79772">
        <ele>186</ele>
        <time>2018-01-15T09:53:48Z</time>
      </trkpt>
      <trkpt lat="47.07854" lon="-0.79799">
        <ele>191</ele>
        <time>2018-01-15T09:54:00Z</time>
      </trkpt>
      <trkpt lat="47.07846" lon="-0.79813">
        <ele>195</ele>
        <time>2018-01-15T09:54:08Z</time>
      </trkpt>
      <trkpt lat="47.0784" lon="-0.79832">
        <ele>194</ele>
        <time>2018-01-15T09:54:17Z</time>
      </trkpt>
      <trkpt lat="47.07835" lon="-0.7985">
        <ele>196</ele>
        <time>2018-01-15T09:54:26Z</time>
      </trkpt>
      <trkpt lat="47.07828" lon="-0.79884">
        <ele>194</ele>
        <time>2018-01-15T09:54:39Z</time>
      </trkpt>
      <trkpt lat="47.0782" lon="-0.79904">
        <ele>198</ele>
        <time>2018-01-15T09:54:48Z</time>
      </trkpt>
      <trkpt lat="47.07812" lon="-0.79925">
        <ele>195</ele>
        <time>2018-01-15T09:55:02Z</time>
      </trkpt>
      <trkpt lat="47.07799" lon="-0.79957">
        <ele>193</ele>
        <time>2018-01-15T09:55:16Z</time>
      </trkpt>
      <trkpt lat="47.07786" lon="-0.79982">
        <ele>191</ele>
        <time>2018-01-15T09:55:28Z</time>
      </trkpt>
      <trkpt lat="47.07777" lon="-0.80005">
        <ele>194</ele>
        <time>2018-01-15T09:55:42Z</time>
      </trkpt>
      <trkpt lat="47.07755" lon="-0.80054">
        <ele>190</ele>
        <time>2018-01-15T09:56:00Z</time>
      </trkpt>
      <trkpt lat="47.07742" lon="-0.80084">
        <ele>190</ele>
        <time>2018-01-15T09:56:12Z</time>
      </trkpt>
      <trkpt lat="47.07736" lon="-0.801">
        <ele>194</ele>
        <time>2018-01-15T09:56:21Z</time>
      </trkpt>
      <trkpt lat="47.07724" lon="-0.80125">
        <ele>193</ele>
        <time>2018-01-15T09:56:31Z</time>
      </trkpt>
      <trkpt lat="47.07716" lon="-0.80149">
        <ele>190</ele>
        <time>2018-01-15T09:56:43Z</time>
      </trkpt>
      <trkpt lat="47.07711" lon="-0.80159">
        <ele>191</ele>
        <time>2018-01-15T09:56:51Z</time>
      </trkpt>
      <trkpt lat="47.0769" lon="-0.80202">
        <ele>193</ele>
        <time>2018-01-15T09:57:07Z</time>
      </trkpt>
      <trkpt lat="47.0768" lon="-0.80225">
        <ele>196</ele>
        <time>2018-01-15T09:57:17Z</time>
      </trkpt>
      <trkpt lat="47.07671" lon="-0.80247">
        <ele>194</ele>
        <time>2018-01-15T09:57:27Z</time>
      </trkpt>
      <trkpt lat="47.07662" lon="-0.80272">
        <ele>188</ele>
        <time>2018-01-15T09:57:39Z</time>
      </trkpt>
      <trkpt lat="47.07647" lon="-0.80305">
        <ele>180</ele>
        <time>2018-01-15T09:57:52Z</time>
      </trkpt>
      <trkpt lat="47.07641" lon="-0.80321">
        <ele>183</ele>
        <time>2018-01-15T09:58:00Z</time>
      </trkpt>
      <trkpt lat="47.07628" lon="-0.80355">
        <ele>182</ele>
        <time>2018-01-15T09:58:16Z</time>
      </trkpt>
      <trkpt lat="47.07611" lon="-0.80387">
        <ele>182</ele>
        <time>2018-01-15T09:58:33Z</time>
      </trkpt>
      <trkpt lat="47.07594" lon="-0.80431">
        <ele>187</ele>
        <time>2018-01-15T09:58:52Z</time>
      </trkpt>
      <trkpt lat="47.07585" lon="-0.80455">
        <ele>187</ele>
        <time>2018-01-15T09:59:02Z</time>
      </trkpt>
      <trkpt lat="47.0758" lon="-0.80471">
        <ele>182</ele>
        <time>2018-01-15T09:59:09Z</time>
      </trkpt>
      <trkpt lat="47.07571" lon="-0.80492">
        <ele>178</ele>
        <time>2018-01-15T09:59:16Z</time>
      </trkpt>
      <trkpt lat="47.07554" lon="-0.80524">
        <ele>177</ele>
        <time>2018-01-15T09:59:30Z</time>
      </trkpt>
      <trkpt lat="47.07546" lon="-0.8054">
        <ele>182</ele>
        <time>2018-01-15T09:59:37Z</time>
      </trkpt>
      <trkpt lat="47.07535" lon="-0.80563">
        <ele>184</ele>
        <time>2018-01-15T09:59:49Z</time>
      </trkpt>
      <trkpt lat="47.07519" lon="-0.80593">
        <ele>185</ele>
        <time>2018-01-15T10:00:00Z</time>
      </trkpt>
      <trkpt lat="47.07511" lon="-0.80616">
        <ele>183</ele>
        <time>2018-01-15T10:00:09Z</time>
      </trkpt>
      <trkpt lat="47.07503" lon="-0.80638">
        <ele>178</ele>
        <time>2018-01-15T10:00:20Z</time>
      </trkpt>
      <trkpt lat="47.07491" lon="-0.80663">
        <ele>183</ele>
        <time>2018-01-15T10:00:30Z</time>
      </trkpt>
      <trkpt lat="47.07486" lon="-0.80676">
        <ele>184</ele>
        <time>2018-01-15T10:00:38Z</time>
      </trkpt>
      <trkpt lat="47.07468" lon="-0.80692">
        <ele>180</ele>
        <time>2018-01-15T10:00:53Z</time>
      </trkpt>
      <trkpt lat="47.07448" lon="-0.80674">
        <ele>178</ele>
        <time>2018-01-15T10:01:06Z</time>
      </trkpt>
      <trkpt lat="47.07434" lon="-0.80674">
        <ele>178</ele>
        <time>2018-01-15T10:01:15Z</time>
      </trkpt>
      <trkpt lat="47.0744" lon="-0.80701">
        <ele>175</ele>
        <time>2018-01-15T10:01:28Z</time>
      </trkpt>
      <trkpt lat="47.07439" lon="-0.80725">
        <ele>175</ele>
        <time>2018-01-15T10:01:38Z</time>
      </trkpt>
      <trkpt lat="47.07436" lon="-0.80758">
        <ele>175</ele>
        <time>2018-01-15T10:01:51Z</time>
      </trkpt>
      <trkpt lat="47.07434" lon="-0.80773">
        <ele>172</ele>
        <time>2018-01-15T10:01:58Z</time>
      </trkpt>
      <trkpt lat="47.0743" lon="-0.80805">
        <ele>175</ele>
        <time>2018-01-15T10:02:10Z</time>
      </trkpt>
      <trkpt lat="47.07429" lon="-0.80838">
        <ele>176</ele>
        <time>2018-01-15T10:02:21Z</time>
      </trkpt>
      <trkpt lat="47.07429" lon="-0.80854">
        <ele>176</ele>
        <time>2018-01-15T10:02:27Z</time>
      </trkpt>
      <trkpt lat="47.07424" lon="-0.80883">
        <ele>180</ele>
        <time>2018-01-15T10:02:38Z</time>
      </trkpt>
      <trkpt lat="47.07422" lon="-0.80908">
        <ele>176</ele>
        <time>2018-01-15T10:02:48Z</time>
      </trkpt>
      <trkpt lat="47.07418" lon="-0.80933">
        <ele>177</ele>
        <time>2018-01-15T10:02:56Z</time>
      </trkpt>
      <trkpt lat="47.07417" lon="-0.80956">
        <ele>175</ele>
        <time>2018-01-15T10:03:04Z</time>
      </trkpt>
      <trkpt lat="47.07417" lon="-0.80986">
        <ele>173</ele>
        <time>2018-01-15T10:03:15Z</time>
      </trkpt>
      <trkpt lat="47.07419" lon="-0.81011">
        <ele>172</ele>
        <time>2018-01-15T10:03:25Z</time>
      </trkpt>
      <trkpt lat="47.07421" lon="-0.8104">
        <ele>171</ele>
        <time>2018-01-15T10:03:38Z</time>
      </trkpt>
      <trkpt lat="47.07418" lon="-0.81075">
        <ele>171</ele>
        <time>2018-01-15T10:03:51Z</time>
      </trkpt>
      <trkpt lat="47.07423" lon="-0.81101">
        <ele>172</ele>
        <time>2018-01-15T10:04:02Z</time>
      </trkpt>
      <trkpt lat="47.07426" lon="-0.81127">
        <ele>173</ele>
        <time>2018-01-15T10:04:13Z</time>
      </trkpt>
      <trkpt lat="47.07429" lon="-0.81163">
        <ele>174</ele>
        <time>2018-01-15T10:04:27Z</time>
      </trkpt>
      <trkpt lat="47.07434" lon="-0.81193">
        <ele>173</ele>
        <time>2018-01-15T10:04:36Z</time>
      </trkpt>
      <trkpt lat="47.07437" lon="-0.81225">
        <ele>171</ele>
        <time>2018-01-15T10:04:48Z</time>
      </trkpt>
      <trkpt lat="47.07439" lon="-0.81263">
        <ele>172</ele>
        <time>2018-01-15T10:05:02Z</time>
      </trkpt>
      <trkpt lat="47.07439" lon="-0.81286">
        <ele>171</ele>
        <time>2018-01-15T10:05:12Z</time>
      </trkpt>
      <trkpt lat="47.07442" lon="-0.81308">
        <ele>170</ele>
        <time>2018-01-15T10:05:21Z</time>
      </trkpt>
      <trkpt lat="47.07442" lon="-0.81337">
        <ele>169</ele>
        <time>2018-01-15T10:05:31Z</time>
      </trkpt>
      <trkpt lat="47.07443" lon="-0.81367">
        <ele>171</ele>
        <time>2018-01-15T10:05:42Z</time>
      </trkpt>
      <trkpt lat="47.07443" lon="-0.81389">
        <ele>172</ele>
        <time>2018-01-15T10:05:50Z</time>
      </trkpt>
      <trkpt lat="47.07446" lon="-0.81416">
        <ele>171</ele>
        <time>2018-01-15T10:06:01Z</time>
      </trkpt>
      <trkpt lat="47.07448" lon="-0.81445">
        <ele>172</ele>
        <time>2018-01-15T10:06:13Z</time>
      </trkpt>
      <trkpt lat="47.07441" lon="-0.81472">
        <ele>170</ele>
        <time>2018-01-15T10:06:26Z</time>
      </trkpt>
      <trkpt lat="47.07431" lon="-0.81485">
        <ele>172</ele>
        <time>2018-01-15T10:06:35Z</time>
      </trkpt>
      <trkpt lat="47.07414" lon="-0.81495">
        <ele>176</ele>
        <time>2018-01-15T10:06:48Z</time>
      </trkpt>
      <trkpt lat="47.07396" lon="-0.81491">
        <ele>174</ele>
        <time>2018-01-15T10:07:02Z</time>
      </trkpt>
      <trkpt lat="47.07367" lon="-0.81488">
        <ele>177</ele>
        <time>2018-01-15T10:07:20Z</time>
      </trkpt>
      <trkpt lat="47.07354" lon="-0.81486">
        <ele>177</ele>
        <time>2018-01-15T10:07:27Z</time>
      </trkpt>
      <trkpt lat="47.07335" lon="-0.81482">
        <ele>178</ele>
        <time>2018-01-15T10:07:38Z</time>
      </trkpt>
      <trkpt lat="47.07322" lon="-0.8148">
        <ele>177</ele>
        <time>2018-01-15T10:07:45Z</time>
      </trkpt>
      <trkpt lat="47.07297" lon="-0.81478">
        <ele>177</ele>
        <time>2018-01-15T10:07:58Z</time>
      </trkpt>
      <trkpt lat="47.07282" lon="-0.81474">
        <ele>176</ele>
        <time>2018-01-15T10:08:07Z</time>
      </trkpt>
      <trkpt lat="47.07271" lon="-0.81475">
        <ele>173</ele>
        <time>2018-01-15T10:08:14Z</time>
      </trkpt>
      <trkpt lat="47.07252" lon="-0.81472">
        <ele>171</ele>
        <time>2018-01-15T10:08:26Z</time>
      </trkpt>
      <trkpt lat="47.07231" lon="-0.81469">
        <ele>171</ele>
        <time>2018-01-15T10:08:37Z</time>
      </trkpt>
      <trkpt lat="47.07213" lon="-0.81467">
        <ele>170</ele>
        <time>2018-01-15T10:08:49Z</time>
      </trkpt>
      <trkpt lat="47.07194" lon="-0.81465">
        <ele>170</ele>
        <time>2018-01-15T10:09:00Z</time>
      </trkpt>
      <trkpt lat="47.07172" lon="-0.8146">
        <ele>172</ele>
        <time>2018-01-15T10:09:13Z</time>
      </trkpt>
      <trkpt lat="47.07158" lon="-0.81455">
        <ele>174</ele>
        <time>2018-01-15T10:09:22Z</time>
      </trkpt>
      <trkpt lat="47.07139" lon="-0.81451">
        <ele>176</ele>
        <time>2018-01-15T10:09:34Z</time>
      </trkpt>
      <trkpt lat="47.07118" lon="-0.81448">
        <ele>175</ele>
        <time>2018-01-15T10:09:46Z</time>
      </trkpt>
      <trkpt lat="47.07097" lon="-0.81445">
        <ele>177</ele>
        <time>2018-01-15T10:10:00Z</time>
      </trkpt>
      <trkpt lat="47.07078" lon="-0.81447">
        <ele>176</ele>
        <time>2018-01-15T10:10:13Z</time>
      </trkpt>
      <trkpt lat="47.07056" lon="-0.81458">
        <ele>177</ele>
        <time>2018-01-15T10:10:28Z</time>
      </trkpt>
      <trkpt lat="47.07038" lon="-0.81469">
        <ele>179</ele>
        <time>2018-01-15T10:10:41Z</time>
      </trkpt>
      <trkpt lat="47.07028" lon="-0.81474">
        <ele>180</ele>
        <time>2018-01-15T10:10:47Z</time>
      </trkpt>
      <trkpt lat="47.07017" lon="-0.81485">
        <ele>178</ele>
        <time>2018-01-15T10:10:58Z</time>
      </trkpt>
      <trkpt lat="47.06999" lon="-0.81495">
        <ele>179</ele>
        <time>2018-01-15T10:11:11Z</time>
      </trkpt>
      <trkpt lat="47.06983" lon="-0.81505">
        <ele>179</ele>
        <time>2018-01-15T10:11:23Z</time>
      </trkpt>
      <trkpt lat="47.06968" lon="-0.81515">
        <ele>179</ele>
        <time>2018-01-15T10:11:33Z</time>
      </trkpt>
      <trkpt lat="47.06956" lon="-0.81523">
        <ele>178</ele>
        <time>2018-01-15T10:11:42Z</time>
      </trkpt>
      <trkpt lat="47.06939" lon="-0.81535">
        <ele>179</ele>
        <time>2018-01-15T10:11:54Z</time>
      </trkpt>
      <trkpt lat="47.06923" lon="-0.81546">
        <ele>178</ele>
        <time>2018-01-15T10:12:08Z</time>
      </trkpt>
      <trkpt lat="47.06904" lon="-0.8156">
        <ele>177</ele>
        <time>2018-01-15T10:12:23Z</time>
      </trkpt>
      <trkpt lat="47.06889" lon="-0.81559">
        <ele>178</ele>
        <time>2018-01-15T10:12:35Z</time>
      </trkpt>
      <trkpt lat="47.06877" lon="-0.81547">
        <ele>177</ele>
        <time>2018-01-15T10:12:45Z</time>
      </trkpt>
      <trkpt lat="47.0686" lon="-0.81529">
        <ele>177</ele>
        <time>2018-01-15T10:13:00Z</time>
      </trkpt>
      <trkpt lat="47.06849" lon="-0.81521">
        <ele>173</ele>
        <time>2018-01-15T10:13:09Z</time>
      </trkpt>
      <trkpt lat="47.0683" lon="-0.81502">
        <ele>174</ele>
        <time>2018-01-15T10:13:23Z</time>
      </trkpt>
      <trkpt lat="47.06817" lon="-0.8149">
        <ele>175</ele>
        <time>2018-01-15T10:13:33Z</time>
      </trkpt>
      <trkpt lat="47.06802" lon="-0.81477">
        <ele>179</ele>
        <time>2018-01-15T10:13:45Z</time>
      </trkpt>
      <trkpt lat="47.06782" lon="-0.81455">
        <ele>177</ele>
        <time>2018-01-15T10:14:02Z</time>
      </trkpt>
      <trkpt lat="47.06766" lon="-0.81442">
        <ele>177</ele>
        <time>2018-01-15T10:14:15Z</time>
      </trkpt>
      <trkpt lat="47.06751" lon="-0.81431">
        <ele>177</ele>
        <time>2018-01-15T10:14:25Z</time>
      </trkpt>
      <trkpt lat="47.06734" lon="-0.81416">
        <ele>176</ele>
        <time>2018-01-15T10:14:39Z</time>
      </trkpt>
      <trkpt lat="47.06718" lon="-0.81393">
        <ele>178</ele>
        <time>2018-01-15T10:14:55Z</time>
      </trkpt>
      <trkpt lat="47.06702" lon="-0.81383">
        <ele>178</ele>
        <time>2018-01-15T10:15:11Z</time>
      </trkpt>
      <trkpt lat="47.06683" lon="-0.81387">
        <ele>179</ele>
        <time>2018-01-15T10:15:27Z</time>
      </trkpt>
      <trkpt lat="47.06666" lon="-0.8138">
        <ele>180</ele>
        <time>2018-01-15T10:15:45Z</time>
      </trkpt>
      <trkpt lat="47.06666" lon="-0.8138">
        <ele>132.7</ele>
        <time>2018-01-15T10:15:58Z</time>
      </trkpt>
      <trkpt lat="47.06666" lon="-0.8138">
        <ele>132.7</ele>
        <time>2018-01-15T10:16:01Z</time>
      </trkpt>
    </trkseg>
  </trk>
</gpx>